Terminal Aerodrome Forecast
Issued by NWS

Home | Current Version | Previous Version | Text Only | Print | Product List | Glossary Off
Versions: 1 2 3 4 5 6 7 8 9 10 11 12 13 14 15 16

000
FTUS43 KTOP 270520
TAFMHK
TAF
KMHK 270520Z 2706/2806 10011KT 4SM -TSRA BKN040CB OVC090
     FM270900 15009KT P6SM BKN020
     FM271600 16010KT P6SM VCTS BKN015CB
     FM271900 17010KT P6SM VCTS SCT020 BKN040CB=

USA.gov is the U.S. government's official web portal to all federal, state and local government web resources and services.